createdAt,value
2022-09-28T00:02:10.790Z,5.37
2022-09-28T00:04:39.584Z,5.45
2022-09-28T00:07:06.988Z,5.35
2022-09-28T00:09:34.437Z,5.30
2022-09-28T00:12:02.266Z,5.25
2022-09-28T00:14:32.197Z,5.28
2022-09-28T00:16:59.619Z,5.22
2022-09-28T00:19:27.114Z,5.16
2022-09-28T00:21:55.875Z,5.11
2022-09-28T00:24:27.517Z,5.08
2022-09-28T00:26:57.101Z,5.11
2022-09-28T00:29:27.145Z,5.05
2022-09-28T00:31:59.729Z,5.05
2022-09-28T00:34:28.006Z,5.03
2022-09-28T00:36:56.750Z,5.01
2022-09-28T00:39:24.509Z,5.01
2022-09-28T00:41:52.368Z,5.01
2022-09-28T00:44:42.490Z,5.01
2022-09-28T00:47:39.900Z,5.00
2022-09-28T00:50:12.346Z,5.01
2022-09-28T00:52:46.484Z,4.95
2022-09-28T00:55:17.051Z,5.01
2022-09-28T00:57:49.148Z,4.96
2022-09-28T01:00:17.249Z,4.98
2022-09-28T01:02:46.486Z,4.97
2022-09-28T01:05:15.232Z,4.97
2022-09-28T01:07:46.525Z,5.02
2022-09-28T01:10:15.017Z,5.00
2022-09-28T01:12:42.463Z,5.02
2022-09-28T01:15:10.928Z,5.00
2022-09-28T01:17:51.752Z,5.02
2022-09-28T01:20:35.299Z,5.03
2022-09-28T01:23:35.360Z,5.03
2022-09-28T01:26:50.482Z,5.03
2022-09-28T01:29:27.532Z,5.04
2022-09-28T01:32:02.574Z,5.05
2022-09-28T01:34:36.850Z,5.03
2022-09-28T01:37:10.681Z,5.09
2022-09-28T01:39:41.616Z,4.99
2022-09-28T01:42:12.935Z,5.08
2022-09-28T01:44:47.584Z,5.07
2022-09-28T01:47:18.983Z,5.09
2022-09-28T01:49:49.827Z,5.04
2022-09-28T01:52:22.738Z,5.06
2022-09-28T01:54:54.555Z,5.00
2022-09-28T01:57:27.619Z,5.03
2022-09-28T02:00:01.481Z,5.02
2022-09-28T02:02:34.256Z,5.06
2022-09-28T02:05:06.044Z,5.03
2022-09-28T02:07:38.191Z,5.02
2022-09-28T02:10:11.852Z,5.00
2022-09-28T02:12:44.888Z,4.97
2022-09-28T02:15:20.543Z,4.96
2022-09-28T02:17:48.575Z,4.97
2022-09-28T02:20:16.853Z,4.97
2022-09-28T02:22:48.490Z,5.02
2022-09-28T02:25:23.831Z,4.99
2022-09-28T02:27:57.885Z,5.01
2022-09-28T02:30:26.964Z,4.96
2022-09-28T02:32:58.015Z,4.96
2022-09-28T02:35:25.485Z,4.96
2022-09-28T02:37:53.411Z,4.98
2022-09-28T02:40:23.115Z,4.96
2022-09-28T02:43:00.707Z,4.94
2022-09-28T02:45:42.344Z,4.93
2022-09-28T02:48:35.961Z,4.90
2022-09-28T02:51:21.302Z,4.90
2022-09-28T02:54:13.451Z,4.89
2022-09-28T02:57:11.162Z,4.87
2022-09-28T02:59:50.353Z,4.84
2022-09-28T03:02:27.046Z,4.87
2022-09-28T03:05:07.070Z,4.79
2022-09-28T03:07:37.781Z,4.75
2022-09-28T03:10:10.925Z,4.75
2022-09-28T03:12:40.112Z,4.73
2022-09-28T03:15:10.364Z,4.70
2022-09-28T03:17:39.630Z,4.64
2022-09-28T03:20:08.155Z,4.66
2022-09-28T03:22:35.543Z,4.61
2022-09-28T03:25:02.944Z,4.55
2022-09-28T03:27:30.340Z,4.58
2022-09-28T03:29:57.741Z,4.61
2022-09-28T03:32:25.279Z,4.54
2022-09-28T03:34:54.283Z,4.54
2022-09-28T03:37:21.689Z,4.57
2022-09-28T03:39:49.150Z,4.51
2022-09-28T03:42:16.559Z,4.52
2022-09-28T03:44:43.957Z,4.57
2022-09-28T03:47:11.559Z,4.45
2022-09-28T03:49:39.088Z,4.48
2022-09-28T03:52:08.173Z,4.46
2022-09-28T03:54:35.589Z,4.43
2022-09-28T03:57:03.008Z,4.34
2022-09-28T03:59:30.635Z,4.38
2022-09-28T04:01:58.316Z,4.39
2022-09-28T04:04:25.728Z,4.43
2022-09-28T04:06:53.139Z,4.50
2022-09-28T04:09:21.900Z,4.58
2022-09-28T04:12:03.437Z,4.62
2022-09-28T04:14:31.832Z,4.60
2022-09-28T04:16:59.305Z,4.66
2022-09-28T04:19:26.693Z,4.60
2022-09-28T04:21:54.116Z,4.75
2022-09-28T04:24:22.887Z,4.78
2022-09-28T04:26:50.330Z,4.78
2022-09-28T04:29:16.951Z,4.70
2022-09-28T04:31:47.138Z,4.74
2022-09-28T04:34:17.233Z,4.66
2022-09-28T04:36:44.879Z,4.68
2022-09-28T04:39:12.420Z,4.67
2022-09-28T04:41:41.238Z,4.64
2022-09-28T04:44:08.927Z,4.56
2022-09-28T04:46:36.800Z,4.37
2022-09-28T04:49:04.556Z,4.39
2022-09-28T04:51:32.667Z,4.31
2022-09-28T04:54:00.136Z,4.33
2022-09-28T04:56:28.300Z,4.44
2022-09-28T04:58:57.009Z,4.49
2022-09-28T05:01:24.542Z,4.52
2022-09-28T05:03:51.985Z,4.47
2022-09-28T05:06:19.378Z,4.47
2022-09-28T05:08:47.621Z,4.46
2022-09-28T05:11:15.746Z,4.44
2022-09-28T05:13:45.189Z,4.31
2022-09-28T05:16:15.749Z,4.34
2022-09-28T05:18:43.534Z,4.41
2022-09-28T05:21:12.674Z,4.25
2022-09-28T05:23:40.513Z,4.40
2022-09-28T05:26:08.429Z,4.48
2022-09-28T05:28:35.815Z,4.52
2022-09-28T05:31:04.984Z,4.58
2022-09-28T05:33:34.337Z,4.64
2022-09-28T05:36:02.177Z,4.63
2022-09-28T05:38:29.754Z,4.62
2022-09-28T05:40:57.297Z,4.61
2022-09-28T05:43:24.911Z,4.58
2022-09-28T05:45:55.632Z,4.57
2022-09-28T05:48:23.700Z,4.58
2022-09-28T05:50:53.466Z,4.58
2022-09-28T05:53:21.172Z,4.64
2022-09-28T05:55:49.102Z,4.71
2022-09-28T05:58:16.961Z,4.75
2022-09-28T06:00:44.663Z,4.78
2022-09-28T06:03:13.765Z,4.78
2022-09-28T06:05:41.616Z,4.72
2022-09-28T06:08:11.528Z,4.70
2022-09-28T06:10:39.330Z,4.69
2022-09-28T06:13:07.160Z,4.73
2022-09-28T06:15:36.154Z,4.78
2022-09-28T06:18:06.415Z,4.80
2022-09-28T06:20:36.181Z,4.81
2022-09-28T06:23:04.125Z,4.88
2022-09-28T06:25:33.033Z,4.91
2022-09-28T06:28:04.321Z,4.95
2022-09-28T06:30:33.955Z,4.99
2022-09-28T06:33:02.755Z,5.07
2022-09-28T06:35:31.390Z,5.06
2022-09-28T06:37:59.880Z,5.18
2022-09-28T06:40:28.223Z,5.15
2022-09-28T06:42:58.675Z,5.17
2022-09-28T06:45:27.067Z,5.13
2022-09-28T06:47:56.517Z,5.07
2022-09-28T06:50:24.066Z,5.10
2022-09-28T06:52:53.284Z,5.13
2022-09-28T06:55:20.933Z,5.16
2022-09-28T06:57:48.700Z,5.19
2022-09-28T07:00:17.760Z,5.20
2022-09-28T07:02:45.164Z,5.17
2022-09-28T07:05:14.471Z,5.23
2022-09-28T07:07:44.652Z,5.25
2022-09-28T07:10:12.746Z,5.26
2022-09-28T07:12:40.496Z,5.26
2022-09-28T07:15:09.228Z,5.39
2022-09-28T07:17:52.971Z,5.60
2022-09-28T07:20:22.213Z,5.81
2022-09-28T07:22:53.924Z,5.96
2022-09-28T07:25:21.425Z,6.04
2022-09-28T07:27:48.817Z,6.11
2022-09-28T07:30:17.037Z,6.15
2022-09-28T07:32:48.276Z,6.04
2022-09-28T07:35:15.999Z,6.16
2022-09-28T07:37:43.402Z,6.24
2022-09-28T07:40:29.077Z,6.27
2022-09-28T07:42:56.689Z,6.32
2022-09-28T07:45:24.702Z,6.30
2022-09-28T07:47:56.196Z,6.33
2022-09-28T07:50:23.707Z,6.45
2022-09-28T07:52:51.114Z,6.38
2022-09-28T07:55:18.511Z,6.36
2022-09-28T07:57:46.928Z,6.36
2022-09-28T08:00:15.568Z,6.38
2022-09-28T08:02:42.991Z,6.39
2022-09-28T08:05:12.363Z,6.39
2022-09-28T08:07:39.752Z,6.46
2022-09-28T08:10:07.867Z,6.57
2022-09-28T08:12:35.798Z,6.59
2022-09-28T08:15:04.335Z,6.52
2022-09-28T08:17:31.711Z,6.51
2022-09-28T08:20:16.390Z,6.48
2022-09-28T08:22:45.205Z,6.45
2022-09-28T08:25:12.627Z,6.45
2022-09-28T08:27:40.079Z,6.50
2022-09-28T08:30:08.812Z,6.76
2022-09-28T08:32:36.580Z,6.94
2022-09-28T08:35:04.265Z,6.93
2022-09-28T08:37:31.670Z,7.05
2022-09-28T08:40:00.386Z,7.13
2022-09-28T08:42:34.873Z,7.22
2022-09-28T08:45:08.801Z,7.46
2022-09-28T08:48:09.386Z,7.69
2022-09-28T08:50:42.531Z,7.82
2022-09-28T08:53:28.747Z,7.88
2022-09-28T08:55:59.796Z,7.99
2022-09-28T08:58:33.575Z,7.74
2022-09-28T09:01:03.073Z,7.67
2022-09-28T09:03:34.010Z,7.87
2022-09-28T09:06:10.355Z,7.89
2022-09-28T09:08:49.945Z,7.63
2022-09-28T09:11:34.014Z,7.76
2022-09-28T09:14:13.826Z,7.95
2022-09-28T09:16:51.141Z,8.17
2022-09-28T09:19:35.384Z,8.02
2022-09-28T09:22:16.255Z,8.13
2022-09-28T09:24:50.687Z,8.10
2022-09-28T09:27:42.040Z,8.02
2022-09-28T09:30:12.699Z,8.28
2022-09-28T09:32:57.056Z,8.16
2022-09-28T09:35:40.459Z,8.10
2022-09-28T09:38:27.702Z,8.11
2022-09-28T09:41:11.530Z,8.11
2022-09-28T09:43:58.730Z,8.04
2022-09-28T09:46:36.134Z,7.96
2022-09-28T09:49:11.394Z,8.04
2022-09-28T09:51:44.544Z,8.29
2022-09-28T09:54:19.643Z,8.36
2022-09-28T09:56:53.632Z,8.38
2022-09-28T09:59:25.889Z,8.58
2022-09-28T10:01:54.467Z,8.64
2022-09-28T10:04:26.990Z,8.73
2022-09-28T10:06:59.860Z,8.67
2022-09-28T10:09:31.772Z,8.54
2022-09-28T10:11:59.262Z,8.50
2022-09-28T10:14:28.403Z,8.69
2022-09-28T10:16:58.744Z,8.89
2022-09-28T10:19:31.655Z,8.90
2022-09-28T10:22:02.516Z,8.70
2022-09-28T10:24:33.095Z,8.97
2022-09-28T10:27:06.437Z,9.18
2022-09-28T10:29:43.776Z,9.14
2022-09-28T10:32:23.734Z,9.28
2022-09-28T10:34:52.434Z,9.53
2022-09-28T10:37:20.446Z,9.40
2022-09-28T10:39:53.124Z,9.34
2022-09-28T10:42:23.531Z,9.12
2022-09-28T10:45:00.083Z,8.94
2022-09-28T10:47:32.475Z,8.94
2022-09-28T10:50:00.758Z,8.98
2022-09-28T10:52:36.949Z,9.06
2022-09-28T10:55:24.959Z,8.98
2022-09-28T10:57:52.911Z,9.23
2022-09-28T11:00:38.537Z,9.23
2022-09-28T11:03:06.188Z,9.33
2022-09-28T11:05:33.812Z,9.20
2022-09-28T11:08:07.994Z,9.17
2022-09-28T11:10:35.663Z,9.20
2022-09-28T11:13:03.049Z,9.29
2022-09-28T11:15:32.896Z,9.24
2022-09-28T11:18:21.082Z,9.29
2022-09-28T11:20:49.417Z,9.12
2022-09-28T11:23:20.624Z,9.21
2022-09-28T11:25:59.667Z,9.56
2022-09-28T11:28:32.615Z,9.61
2022-09-28T11:31:01.331Z,9.75
2022-09-28T11:33:36.038Z,9.76
2022-09-28T11:36:22.140Z,9.77
2022-09-28T11:39:01.015Z,9.85
2022-09-28T11:41:43.729Z,9.89
2022-09-28T11:44:44.540Z,9.85
2022-09-28T11:47:30.072Z,9.85
2022-09-28T11:50:06.385Z,9.75
2022-09-28T11:52:40.193Z,9.73
2022-09-28T11:55:15.256Z,9.72
2022-09-28T11:57:47.302Z,9.49
2022-09-28T12:00:17.412Z,9.42
2022-09-28T12:02:51.931Z,9.36
2022-09-28T12:05:26.755Z,9.29
2022-09-28T12:07:57.755Z,9.28
2022-09-28T12:10:42.166Z,9.32
2022-09-28T12:13:17.263Z,9.33
2022-09-28T12:16:20.062Z,9.45
2022-09-28T12:18:45.835Z,9.43
2022-09-28T12:21:28.652Z,9.67
2022-09-28T12:24:07.713Z,9.67
2022-09-28T12:26:42.623Z,9.65
2022-09-28T12:29:15.132Z,9.53
2022-09-28T12:31:54.715Z,9.69
2022-09-28T12:34:23.220Z,9.63
2022-09-28T12:37:05.503Z,9.54
2022-09-28T12:40:01.335Z,9.52
2022-09-28T12:42:53.518Z,9.51
2022-09-28T12:45:47.902Z,9.49
2022-09-28T12:48:37.788Z,9.52
2022-09-28T12:51:15.923Z,9.60
2022-09-28T12:54:14.788Z,9.50
2022-09-28T12:56:57.969Z,9.42
2022-09-28T12:59:31.766Z,9.51
2022-09-28T13:02:22.215Z,9.63
2022-09-28T13:05:13.366Z,9.77
2022-09-28T13:07:50.554Z,9.70
2022-09-28T13:10:32.570Z,9.62
2022-09-28T13:13:19.204Z,9.56
2022-09-28T13:15:52.975Z,9.63
2022-09-28T13:18:29.152Z,9.51
2022-09-28T13:21:15.972Z,9.63
2022-09-28T13:23:45.751Z,9.69
2022-09-28T13:26:24.031Z,9.63
2022-09-28T13:28:54.657Z,9.61
2022-09-28T13:31:30.873Z,9.67
2022-09-28T13:34:02.884Z,9.71
2022-09-28T13:36:45.843Z,9.78
2022-09-28T13:39:48.676Z,9.90
2022-09-28T13:42:29.132Z,10.03
2022-09-28T13:45:37.118Z,10.01
2022-09-28T13:48:15.268Z,9.95
2022-09-28T13:51:16.172Z,9.97
2022-09-28T13:54:16.868Z,10.05
2022-09-28T13:56:54.940Z,10.24
2022-09-28T13:59:27.614Z,10.17
2022-09-28T14:02:06.947Z,10.20
2022-09-28T14:04:54.292Z,10.07
2022-09-28T14:07:25.351Z,10.01
2022-09-28T14:10:17.232Z,9.82
2022-09-28T14:12:47.217Z,9.68
2022-09-28T14:15:40.716Z,9.64
2022-09-28T14:18:20.803Z,9.64
2022-09-28T14:21:04.127Z,9.60
2022-09-28T14:23:47.561Z,9.66
2022-09-28T14:26:46.922Z,10.43
2022-09-28T14:29:28.430Z,11.70
2022-09-28T14:31:59.073Z,12.40
2022-09-28T14:34:36.088Z,12.59
2022-09-28T14:37:23.416Z,12.82
2022-09-28T14:40:09.327Z,12.93
2022-09-28T14:42:37.048Z,12.97
2022-09-28T14:45:35.916Z,12.98
2022-09-28T14:48:16.378Z,13.29
2022-09-28T14:50:43.795Z,12.40
2022-09-28T14:53:13.900Z,11.89
2022-09-28T14:55:50.122Z,11.35
2022-09-28T14:58:22.499Z,11.21
2022-09-28T15:00:56.596Z,11.87
2022-09-28T15:03:29.802Z,12.58
2022-09-28T15:05:57.519Z,12.70
2022-09-28T15:08:36.960Z,12.01
2022-09-28T15:11:04.545Z,11.51
2022-09-28T15:13:31.997Z,11.21
2022-09-28T15:16:04.460Z,11.17
2022-09-28T15:19:04.051Z,10.99
2022-09-28T15:21:37.332Z,10.94
2022-09-28T15:24:24.769Z,10.94
2022-09-28T15:26:53.048Z,11.13
2022-09-28T15:29:22.657Z,11.98
2022-09-28T15:31:54.281Z,12.48
2022-09-28T15:34:48.666Z,13.07
2022-09-28T15:37:21.877Z,12.46
2022-09-28T15:39:50.922Z,11.66
2022-09-28T15:42:19.284Z,11.37
2022-09-28T15:45:06.007Z,11.46
2022-09-28T15:47:33.655Z,11.00
2022-09-28T15:50:05.001Z,10.79
2022-09-28T15:52:36.964Z,10.65
2022-09-28T15:55:07.035Z,10.46
2022-09-28T15:57:38.106Z,10.22
2022-09-28T16:00:22.703Z,9.89
2022-09-28T16:03:01.541Z,9.48
2022-09-28T16:05:39.126Z,9.30
2022-09-28T16:08:14.779Z,9.16
2022-09-28T16:10:55.105Z,9.03
2022-09-28T16:13:23.832Z,9.05
2022-09-28T16:15:57.770Z,8.99
2022-09-28T16:18:26.435Z,8.91
2022-09-28T16:20:57.016Z,8.98
2022-09-28T16:23:27.712Z,9.03
2022-09-28T16:26:00.074Z,8.92
2022-09-28T16:28:51.522Z,8.86
2022-09-28T16:31:28.155Z,8.73
2022-09-28T16:33:58.871Z,8.69
2022-09-28T16:36:30.102Z,8.63
2022-09-28T16:38:57.680Z,8.58
2022-09-28T16:41:28.801Z,8.54
2022-09-28T16:44:00.883Z,8.55
2022-09-28T16:46:33.601Z,8.50
2022-09-28T16:49:02.889Z,8.52
2022-09-28T16:51:32.395Z,8.35
2022-09-28T16:54:19.959Z,8.26
2022-09-28T16:56:47.449Z,8.21
2022-09-28T16:59:14.947Z,8.10
2022-09-28T17:01:43.810Z,7.99
2022-09-28T17:04:11.970Z,7.88
2022-09-28T17:06:40.734Z,7.86
2022-09-28T17:09:14.103Z,7.82
2022-09-28T17:11:41.485Z,7.84
2022-09-28T17:14:09.316Z,7.78
2022-09-28T17:19:28.687Z,7.75
2022-09-28T17:21:57.446Z,7.73
2022-09-28T17:24:24.895Z,7.69
2022-09-28T17:26:53.152Z,7.66
2022-09-28T17:29:21.014Z,7.61
2022-09-28T17:31:48.722Z,7.52
2022-09-28T17:34:16.952Z,7.54
2022-09-28T17:36:45.569Z,7.49
2022-09-28T17:39:16.805Z,7.47
2022-09-28T17:41:44.355Z,7.47
2022-09-28T17:44:15.830Z,7.42
2022-09-28T17:46:48.374Z,7.41
2022-09-28T17:49:16.900Z,7.40
2022-09-28T17:51:44.356Z,7.40
2022-09-28T17:54:12.837Z,7.39
2022-09-28T17:56:42.305Z,7.35
2022-09-28T17:59:14.320Z,7.34
2022-09-28T18:01:41.953Z,7.34
2022-09-28T18:04:22.997Z,7.39
2022-09-28T18:06:59.409Z,7.31
2022-09-28T18:09:26.884Z,7.28
2022-09-28T18:12:00.486Z,7.19
2022-09-28T18:14:28.298Z,7.24
2022-09-28T18:16:55.756Z,7.26
2022-09-28T18:19:23.215Z,7.23
2022-09-28T18:21:50.661Z,7.19
2022-09-28T18:24:18.214Z,7.18
2022-09-28T18:26:45.807Z,7.18
2022-09-28T18:29:14.580Z,7.17
2022-09-28T18:31:42.041Z,7.19
2022-09-28T18:34:10.765Z,7.10
2022-09-28T18:36:38.270Z,7.17
2022-09-28T18:39:05.724Z,7.12
2022-09-28T18:41:33.323Z,7.11
2022-09-28T18:44:01.376Z,7.06
2022-09-28T18:46:31.265Z,7.05
2022-09-28T18:48:58.803Z,7.00
2022-09-28T18:51:26.350Z,6.96
2022-09-28T18:53:53.775Z,7.03
2022-09-28T18:56:21.781Z,7.11
2022-09-28T18:58:49.721Z,7.10
2022-09-28T19:01:30.089Z,6.89
2022-09-28T19:04:01.329Z,6.97
2022-09-28T19:06:29.670Z,6.92
2022-09-28T19:08:57.274Z,6.85
2022-09-28T19:11:25.675Z,6.83
2022-09-28T19:13:54.361Z,6.81
2022-09-28T19:16:23.991Z,6.83
2022-09-28T19:18:52.288Z,6.79
2022-09-28T19:21:21.265Z,6.76
2022-09-28T19:23:50.036Z,6.84
2022-09-28T19:26:20.285Z,6.79
2022-09-28T19:28:47.746Z,6.74
2022-09-28T19:31:15.241Z,6.71
2022-09-28T19:33:43.670Z,6.77
2022-09-28T19:36:14.402Z,6.79
2022-09-28T19:38:43.292Z,6.66
2022-09-28T19:41:11.260Z,6.70
2022-09-28T19:43:43.558Z,6.65
2022-09-28T19:46:12.638Z,6.59
2022-09-28T19:48:41.145Z,6.51
2022-09-28T19:51:10.108Z,6.53
2022-09-28T19:53:37.589Z,6.52
2022-09-28T19:56:06.896Z,6.36
2022-09-28T19:58:36.296Z,6.37
2022-09-28T20:01:06.511Z,6.36
2022-09-28T20:03:34.001Z,6.30
2022-09-28T20:06:02.565Z,6.36
2022-09-28T20:08:30.893Z,6.36
2022-09-28T20:10:59.725Z,6.36
2022-09-28T20:13:32.724Z,6.36
2022-09-28T20:16:04.454Z,6.26
2022-09-28T20:18:34.400Z,6.22
2022-09-28T20:21:02.983Z,6.17
2022-09-28T20:23:31.245Z,6.10
2022-09-28T20:25:58.852Z,6.04
2022-09-28T20:28:26.277Z,6.05
2022-09-28T20:30:55.442Z,6.04
2022-09-28T20:33:28.582Z,5.89
2022-09-28T20:35:56.486Z,5.93
2022-09-28T20:38:24.002Z,5.93
2022-09-28T20:40:51.430Z,5.87
2022-09-28T20:43:18.949Z,5.84
2022-09-28T20:45:46.332Z,5.83
2022-09-28T20:48:15.223Z,5.79
2022-09-28T20:50:43.255Z,5.77
2022-09-28T20:53:10.665Z,5.68
2022-09-28T20:55:38.070Z,5.60
2022-09-28T20:58:05.496Z,5.58
2022-09-28T21:00:33.046Z,5.53
2022-09-28T21:03:00.452Z,5.50
2022-09-28T21:05:30.548Z,5.53
2022-09-28T21:07:59.123Z,5.45
2022-09-28T21:10:30.204Z,5.50
2022-09-28T21:12:57.640Z,5.55
2022-09-28T21:15:25.139Z,5.53
2022-09-28T21:17:52.582Z,5.49
2022-09-28T21:20:19.973Z,5.57
2022-09-28T21:22:48.696Z,5.58
2022-09-28T21:25:16.205Z,5.60
2022-09-28T21:27:44.683Z,5.57
2022-09-28T21:30:13.053Z,5.51
2022-09-28T21:32:40.468Z,5.56
2022-09-28T21:35:08.627Z,5.54
2022-09-28T21:37:36.037Z,5.46
2022-09-28T21:40:09.402Z,5.47
2022-09-28T21:42:36.791Z,5.46
2022-09-28T21:45:04.721Z,5.51
2022-09-28T21:47:32.132Z,5.53
2022-09-28T21:49:59.565Z,5.48
2022-09-28T21:52:27.294Z,5.46
2022-09-28T21:54:54.995Z,5.48
2022-09-28T21:57:23.855Z,5.50
2022-09-28T21:59:51.251Z,5.47
2022-09-28T22:02:19.010Z,5.49
2022-09-28T22:04:46.438Z,5.43
2022-09-28T22:07:13.836Z,5.34
2022-09-28T22:09:41.256Z,5.33
2022-09-28T22:12:08.708Z,5.28
2022-09-28T22:14:37.453Z,5.33
2022-09-28T22:17:04.877Z,5.37
2022-09-28T22:19:32.300Z,5.34
2022-09-28T22:21:59.704Z,5.36
2022-09-28T22:24:27.184Z,5.34
2022-09-28T22:26:54.695Z,5.30
2022-09-28T22:29:22.456Z,5.22
2022-09-28T22:31:51.273Z,5.20
2022-09-28T22:34:18.929Z,5.14
2022-09-28T22:36:46.433Z,5.21
2022-09-28T22:39:14.598Z,5.11
2022-09-28T22:41:42.008Z,5.10
2022-09-28T22:44:09.409Z,4.99
2022-09-28T22:46:36.885Z,4.93
2022-09-28T22:49:05.941Z,4.93
2022-09-28T22:51:33.352Z,4.93
2022-09-28T22:54:01.080Z,4.87
2022-09-28T22:56:28.780Z,4.89
2022-09-28T22:58:56.368Z,4.88
2022-09-28T23:01:25.505Z,4.88
2022-09-28T23:03:53.983Z,4.67
2022-09-28T23:06:25.828Z,4.73
2022-09-28T23:08:53.912Z,4.57
2022-09-28T23:11:21.444Z,4.58
2022-09-28T23:13:52.618Z,4.59
2022-09-28T23:16:22.768Z,4.44
2022-09-28T23:18:50.240Z,4.28
2022-09-28T23:21:19.308Z,4.32
2022-09-28T23:23:53.094Z,4.34
2022-09-28T23:26:23.442Z,4.31
2022-09-28T23:28:51.680Z,4.29
2022-09-28T23:31:21.052Z,4.21
2022-09-28T23:33:48.683Z,4.15
2022-09-28T23:36:16.884Z,4.11
2022-09-28T23:38:44.585Z,4.04
2022-09-28T23:41:13.290Z,3.98
2022-09-28T23:43:40.735Z,3.91
2022-09-28T23:46:08.226Z,3.89
2022-09-28T23:48:35.711Z,3.81
2022-09-28T23:51:03.916Z,3.79
2022-09-28T23:53:32.095Z,3.74
2022-09-28T23:55:59.646Z,3.69
2022-09-28T23:58:28.488Z,3.55
